Time;durP1;ratioP1;P1;durP2;ratioP2;P2;SDS_P1;SDS_P2;PMS_P1;PMS_P2;Temp;Humidity;BMP_temperature;BMP_pressure;BME280_temperature;BME280_humidity;BME280_pressure;Samples;Min_cycle;Max_cycle;Signal;HPM_P1;HPM_P2
2023/02/09 00:01:07;;;;;;;;;;;-0.20;99.90;;;;;;5053135;28;20037;-85
2023/02/09 00:03:33;;;;;;;0.80;0.80;;;-0.20;99.90;;;;;;5053663;28;19959;-86
2023/02/09 00:06:01;;;;;;;1.13;1.13;;;-0.40;99.90;;;;;;5028714;28;20045;-87
2023/02/09 00:08:28;;;;;;;0.77;0.77;;;-0.40;99.90;;;;;;5004684;28;20073;-86
2023/02/09 00:10:53;;;;;;;0.70;0.70;;;0.50;99.90;;;;;;5052279;28;20045;-88
2023/02/09 00:13:23;;;;;;;0.70;0.70;;;-0.30;99.90;;;;;;5050843;28;20440;-87
2023/02/09 00:15:53;;;;;;;0.70;0.70;;;1.10;99.90;;;;;;5053477;28;20044;-87
2023/02/09 00:18:19;;;;;;;1.60;0.82;;;0.80;99.90;;;;;;5059083;28;20101;-90
2023/02/09 00:20:54;;;;;;;0.90;0.90;;;-0.30;99.90;;;;;;5016437;28;20051;-87
2023/02/09 00:23:19;;;;;;;1.30;1.30;;;-0.30;99.90;;;;;;5004140;28;20060;-89
2023/02/09 00:25:45;;;;;;;0.90;0.90;;;0.70;99.90;;;;;;5016968;28;20053;-89
2023/02/09 00:28:10;;;;;;;0.70;0.70;;;-0.30;99.90;;;;;;5017655;28;20482;-89
2023/02/09 00:30:37;;;;;;;0.80;0.80;;;0.40;99.90;;;;;;5030704;28;20470;-90
2023/02/09 00:33:03;;;;;;;0.70;0.70;;;-0.20;99.90;;;;;;5034870;28;20063;-90
2023/02/09 00:35:29;;;;;;;0.70;0.70;;;-0.20;99.90;;;;;;5036781;28;20492;-89
2023/02/09 00:37:54;;;;;;;1.00;1.00;;;-0.20;99.90;;;;;;5020861;28;20037;-89
2023/02/09 00:40:20;;;;;;;0.90;0.90;;;-0.30;99.90;;;;;;5026639;28;20044;-90
2023/02/09 00:42:46;;;;;;;0.60;0.60;;;1.20;99.90;;;;;;5025700;28;20155;-89
2023/02/09 00:45:12;;;;;;;1.00;1.00;;;-0.30;99.90;;;;;;5036149;28;20502;-88
2023/02/09 00:47:38;;;;;;;;;;;-0.30;99.90;;;;;;5002563;28;20136;-89
2023/02/09 00:50:05;;;;;;;0.80;0.80;;;-0.20;99.90;;;;;;5039920;28;19916;-89
2023/02/09 00:52:32;;;;;;;1.23;1.20;;;-0.20;99.90;;;;;;5054456;28;20063;-87
2023/02/09 00:54:57;;;;;;;0.95;0.93;;;-0.10;99.90;;;;;;5045903;28;20136;-89
2023/02/09 00:57:23;;;;;;;1.25;1.15;;;-0.10;99.90;;;;;;5015988;28;20124;-88
2023/02/09 00:59:49;;;;;;;0.90;0.90;;;0.00;99.90;;;;;;5045007;28;20084;-87
2023/02/09 01:02:15;;;;;;;1.40;1.38;;;0.10;99.90;;;;;;5037717;28;20379;-89
2023/02/09 01:04:41;;;;;;;2.03;1.92;;;0.20;99.90;;;;;;5022115;28;20046;-88
2023/02/09 01:07:07;;;;;;;0.60;0.60;;;0.10;99.90;;;;;;5052247;28;21108;-89
2023/02/09 01:09:32;;;;;;;0.80;0.80;;;0.10;99.90;;;;;;5045435;28;20048;-88
2023/02/09 01:11:58;;;;;;;0.75;0.75;;;0.20;99.90;;;;;;5023131;28;20037;-87
2023/02/09 01:14:24;;;;;;;0.90;0.90;;;0.20;99.90;;;;;;5041224;28;20100;-88
2023/02/09 01:16:49;;;;;;;0.90;0.90;;;0.20;99.90;;;;;;5047216;28;20041;-87
2023/02/09 01:19:15;;;;;;;0.80;0.80;;;0.30;99.90;;;;;;5044870;28;20052;-87
2023/02/09 01:21:41;;;;;;;2.00;1.42;;;1.50;99.90;;;;;;5053634;28;20040;-89
2023/02/09 01:24:10;;;;;;;;;;;0.30;99.90;;;;;;5019717;28;20450;-90
2023/02/09 01:26:37;;;;;;;0.77;0.77;;;0.20;99.90;;;;;;5047430;28;19963;-88
2023/02/09 01:29:03;;;;;;;0.68;0.68;;;0.30;99.90;;;;;;5035640;28;20486;-87
2023/02/09 01:31:32;;;;;;;0.70;0.70;;;0.30;99.90;;;;;;5052144;28;20094;-87
2023/02/09 01:34:00;;;;;;;2.05;1.73;;;0.30;99.90;;;;;;5034765;28;20045;-87
2023/02/09 01:36:27;;;;;;;0.70;0.70;;;0.80;99.90;;;;;;5051206;28;20036;-88
2023/02/09 01:38:54;;;;;;;0.70;0.70;;;0.40;99.90;;;;;;5026782;28;20075;-86
2023/02/09 01:41:20;;;;;;;0.80;0.80;;;0.60;99.90;;;;;;5038089;28;20044;-89
2023/02/09 01:43:57;;;;;;;;;;;0.30;99.90;;;;;;5019482;28;20045;-89
2023/02/09 01:46:32;;;;;;;0.70;0.70;;;0.30;99.90;;;;;;5051431;28;19916;-87
2023/02/09 01:49:13;;;;;;;0.60;0.60;;;0.30;99.90;;;;;;5050769;28;20310;-88
2023/02/09 01:51:54;;;;;;;0.70;0.70;;;0.20;99.90;;;;;;5051704;28;20041;-89
2023/02/09 01:54:25;;;;;;;0.80;0.80;;;0.20;99.90;;;;;;5038389;28;20807;-88
2023/02/09 01:56:57;;;;;;;1.02;1.02;;;0.20;99.90;;;;;;5044882;28;20073;-88
2023/02/09 01:59:23;;;;;;;0.65;0.65;;;1.90;99.90;;;;;;5047843;28;20067;-89
2023/02/09 02:01:50;;;;;;;1.00;1.00;;;0.20;99.90;;;;;;5034995;28;20481;-88
2023/02/09 02:04:16;;;;;;;1.00;0.93;;;0.20;99.90;;;;;;5033648;28;20037;-87
2023/02/09 02:06:42;;;;;;;0.70;0.70;;;1.70;99.90;;;;;;5022803;28;20148;-87
2023/02/09 02:09:11;;;;;;;0.70;0.70;;;0.30;99.90;;;;;;5045915;28;20040;-88
2023/02/09 02:11:40;;;;;;;0.70;0.70;;;0.20;99.90;;;;;;5035032;28;20041;-88
2023/02/09 02:14:06;;;;;;;1.63;1.60;;;0.70;99.90;;;;;;5051545;28;20041;-88
2023/02/09 02:16:47;;;;;;;0.80;0.80;;;0.30;99.90;;;;;;5017665;28;20072;-87
2023/02/09 02:19:28;;;;;;;0.80;0.80;;;0.30;99.90;;;;;;5033389;28;20048;-88
2023/02/09 02:22:06;;;;;;;0.50;0.50;;;0.20;99.90;;;;;;5035170;28;20045;-87
2023/02/09 02:24:53;;;;;;;1.33;1.25;;;0.10;99.90;;;;;;5051720;28;20041;-87
2023/02/09 02:27:31;;;;;;;0.60;0.60;;;0.10;99.90;;;;;;5049827;28;20045;-87
2023/02/09 02:30:23;;;;;;;1.25;1.25;;;0.10;99.90;;;;;;5033040;28;20040;-87
2023/02/09 02:33:07;;;;;;;0.70;0.70;;;0.10;99.90;;;;;;5040211;28;20045;-87
2023/02/09 02:35:42;;;;;;;0.60;0.60;;;0.00;99.90;;;;;;5036983;28;20041;-87
2023/02/09 02:38:16;;;;;;;0.73;0.73;;;0.40;99.90;;;;;;5029414;28;20124;-87
2023/02/09 02:41:00;;;;;;;0.60;0.60;;;1.10;99.90;;;;;;5037255;28;20029;-87
2023/02/09 02:43:47;;;;;;;0.70;0.70;;;-0.10;99.90;;;;;;5052237;28;20072;-88
2023/02/09 02:46:25;;;;;;;0.82;0.82;;;-0.10;99.90;;;;;;5054817;28;20076;-88
2023/02/09 02:48:59;;;;;;;0.85;0.85;;;-0.10;99.90;;;;;;5053953;28;20037;-87
2023/02/09 02:51:30;;;;;;;0.80;0.80;;;-0.20;99.90;;;;;;5054035;28;20071;-88
2023/02/09 02:54:00;;;;;;;1.02;1.02;;;-0.20;99.90;;;;;;5053983;28;20045;-87
2023/02/09 02:56:35;;;;;;;1.20;1.20;;;-0.20;99.90;;;;;;5037211;28;20107;-87
2023/02/09 02:59:03;;;;;;;0.70;0.70;;;0.30;99.90;;;;;;5035428;28;20070;-87
2023/02/09 03:01:36;;;;;;;0.90;0.90;;;-0.30;99.90;;;;;;5035073;28;20099;-87
2023/02/09 03:04:05;;;;;;;1.00;1.00;;;1.20;99.90;;;;;;5053246;28;20041;-87
2023/02/09 03:06:32;;;;;;;0.70;0.70;;;-0.30;99.90;;;;;;5054085;28;20037;-87
2023/02/09 03:08:58;;;;;;;0.73;0.73;;;1.20;99.90;;;;;;5040555;28;20041;-88
2023/02/09 03:11:27;;;;;;;;;;;0.50;99.90;;;;;;5051502;28;20029;-87
2023/02/09 03:14:11;;;;;;;0.80;0.80;;;-0.20;99.90;;;;;;5054290;28;20293;-87
2023/02/09 03:17:04;;;;;;;0.70;0.70;;;-0.20;99.90;;;;;;5054253;28;20045;-89
2023/02/09 03:19:47;;;;;;;2.10;2.00;;;-0.30;99.90;;;;;;5049728;28;20037;-87
2023/02/09 03:22:16;;;;;;;1.25;1.25;;;-0.30;99.90;;;;;;5034293;28;20116;-87
2023/02/09 03:24:50;;;;;;;0.90;0.90;;;-0.30;99.90;;;;;;5049138;28;20067;-86
2023/02/09 03:27:22;;;;;;;0.70;0.70;;;-0.30;99.90;;;;;;5053343;28;20080;-88
2023/02/09 03:29:52;;;;;;;2.00;1.90;;;-0.40;99.90;;;;;;5054198;28;20037;-88
2023/02/09 03:32:20;;;;;;;0.70;0.70;;;0.90;99.90;;;;;;5033438;28;20064;-87
2023/02/09 03:34:46;;;;;;;0.80;0.80;;;-0.40;99.90;;;;;;5048652;28;20052;-86
2023/02/09 03:37:12;;;;;;;0.80;0.80;;;-0.30;99.90;;;;;;5020668;28;20044;-88
2023/02/09 03:39:38;;;;;;;0.70;0.70;;;-0.30;99.90;;;;;;5037746;28;20098;-88
2023/02/09 03:42:04;;;;;;;0.93;0.93;;;-0.40;99.90;;;;;;5051268;28;20102;-87
2023/02/09 03:44:29;;;;;;;4.07;3.67;;;-0.30;99.90;;;;;;5006876;28;20131;-87
2023/02/09 03:47:00;;;;;;;5.30;1.80;;;0.30;99.90;;;;;;5052975;28;20048;-87
2023/02/09 03:49:30;;;;;;;1.00;1.00;;;-0.30;99.90;;;;;;5054808;28;20052;-88
2023/02/09 03:51:59;;;;;;;0.80;0.80;;;-0.30;99.90;;;;;;5026741;28;20128;-88
2023/02/09 03:54:26;;;;;;;0.80;0.80;;;1.00;99.90;;;;;;5037305;28;20049;-88
2023/02/09 03:56:52;;;;;;;0.95;0.95;;;-0.30;99.90;;;;;;5017320;28;20061;-87
2023/02/09 03:59:19;;;;;;;0.70;0.70;;;-0.40;99.90;;;;;;5001188;28;20609;-88
2023/02/09 04:01:45;;;;;;;1.98;1.70;;;-0.40;99.90;;;;;;5049140;28;20042;-88
2023/02/09 04:04:11;;;;;;;0.90;0.90;;;0.60;99.90;;;;;;5040972;28;20525;-88
2023/02/09 04:06:37;;;;;;;0.73;0.73;;;-0.30;99.90;;;;;;5019071;28;20048;-88
2023/02/09 04:09:04;;;;;;;0.80;0.80;;;-0.40;99.90;;;;;;5038977;28;20047;-87
2023/02/09 04:11:30;;;;;;;1.00;1.00;;;-0.50;99.90;;;;;;5033771;28;20101;-87
2023/02/09 04:13:56;;;;;;;1.98;1.88;;;-0.50;99.90;;;;;;5052975;28;20448;-88
2023/02/09 04:16:21;;;;;;;0.80;0.80;;;-0.40;99.90;;;;;;5056877;28;20086;-86
2023/02/09 04:18:47;;;;;;;0.90;0.90;;;-0.10;99.90;;;;;;5036804;28;20456;-88
2023/02/09 04:21:14;;;;;;;0.73;0.73;;;-0.50;99.90;;;;;;5037596;28;20045;-86
2023/02/09 04:23:40;;;;;;;1.15;1.08;;;-0.50;99.90;;;;;;5052079;28;20124;-85
2023/02/09 04:26:07;;;;;;;0.85;0.85;;;-0.50;99.90;;;;;;5033032;28;20128;-87
2023/02/09 04:28:33;;;;;;;1.45;1.35;;;-0.60;99.90;;;;;;5032322;28;20495;-87
2023/02/09 04:30:59;;;;;;;0.82;0.82;;;-0.60;99.90;;;;;;5032691;28;20077;-87
2023/02/09 04:33:25;;;;;;;0.88;0.88;;;-0.60;99.90;;;;;;5031987;28;20091;-87
2023/02/09 04:35:51;;;;;;;0.70;0.70;;;-0.60;99.90;;;;;;5015799;28;20053;-88
2023/02/09 04:38:19;;;;;;;0.70;0.70;;;-0.30;99.90;;;;;;5035473;28;20037;-90
2023/02/09 04:40:49;;;;;;;0.82;0.82;;;-0.60;99.90;;;;;;5035109;28;20048;-88
2023/02/09 04:43:15;;;;;;;0.80;0.80;;;-0.30;99.90;;;;;;5051005;28;20548;-88
2023/02/09 04:45:41;;;;;;;2.10;2.00;;;0.80;99.90;;;;;;5051196;28;20073;-88
2023/02/09 04:48:10;;;;;;;;;;;-0.60;99.90;;;;;;5035585;28;20041;-86
2023/02/09 04:50:35;;;;;;;0.80;0.80;;;-0.70;99.90;;;;;;5052100;28;20281;-87
2023/02/09 04:53:01;;;;;;;1.17;1.17;;;0.00;99.90;;;;;;5015713;28;20041;-87
2023/02/09 04:55:27;;;;;;;0.75;0.75;;;-0.70;99.90;;;;;;5018125;28;20053;-86
2023/02/09 05:00:37;;;;;;;0.90;0.90;;;-0.70;99.90;;;;;;5052184;28;19978;-88
2023/02/09 05:03:03;;;;;;;1.10;1.10;;;-0.70;99.90;;;;;;5015741;28;20479;-87
2023/02/09 05:05:29;;;;;;;0.80;0.80;;;-0.70;99.90;;;;;;5048324;28;20075;-87
2023/02/09 05:07:55;;;;;;;;;;;-0.70;99.90;;;;;;5050186;28;20037;-84
2023/02/09 05:10:20;;;;;;;0.85;0.85;;;0.10;99.90;;;;;;5024565;28;19916;-85
2023/02/09 05:12:46;;;;;;;0.90;0.90;;;-0.70;99.90;;;;;;5019081;28;20044;-86
2023/02/09 05:15:12;;;;;;;;;;;-0.60;99.90;;;;;;5052434;28;20579;-86
2023/02/09 05:17:38;;;;;;;0.80;0.80;;;-0.60;99.90;;;;;;5058230;28;19917;-85
2023/02/09 05:20:04;;;;;;;;;;;-0.50;99.90;;;;;;5044156;28;20562;-86
2023/02/09 05:22:30;;;;;;;1.00;1.00;;;-0.60;99.90;;;;;;5044716;28;19921;-83
2023/02/09 05:24:55;;;;;;;1.05;1.05;;;-0.60;99.90;;;;;;5047325;28;20045;-87
2023/02/09 05:27:21;;;;;;;0.90;0.90;;;-0.60;99.90;;;;;;5034113;28;20542;-88
2023/02/09 05:29:47;;;;;;;0.90;0.90;;;-0.70;99.90;;;;;;5049447;28;20414;-88
2023/02/09 05:32:13;;;;;;;0.85;0.85;;;-0.70;99.90;;;;;;5035721;28;20045;-85
2023/02/09 05:34:38;;;;;;;2.30;2.20;;;-0.80;99.90;;;;;;5049207;28;20075;-86
2023/02/09 05:37:04;;;;;;;0.77;0.77;;;-0.80;99.90;;;;;;5032800;28;20045;-87
2023/02/09 05:39:30;;;;;;;0.85;0.85;;;-0.80;99.90;;;;;;5015685;28;20388;-88
2023/02/09 05:44:47;;;;;;;0.70;0.70;;;-0.70;99.90;;;;;;5037961;28;20067;-85
2023/02/09 05:47:16;;;;;;;0.80;0.80;;;-0.70;99.90;;;;;;5051614;28;20041;-85
2023/02/09 05:49:42;;;;;;;0.70;0.70;;;-0.80;99.90;;;;;;5055216;28;20048;-87
2023/02/09 05:52:08;;;;;;;;;;;-0.70;99.90;;;;;;5034991;28;20497;-86
2023/02/09 05:54:34;;;;;;;0.80;0.80;;;-0.70;99.90;;;;;;5018439;28;19924;-87
2023/02/09 05:57:00;;;;;;;0.80;0.80;;;-0.80;99.90;;;;;;5062336;28;20059;-88
2023/02/09 05:59:26;;;;;;;;;;;-0.80;99.90;;;;;;5078044;28;20044;-86
2023/02/09 06:01:52;;;;;;;1.30;1.30;;;-0.80;99.90;;;;;;5072280;28;20015;-87
2023/02/09 06:04:17;;;;;;;;;;;-0.90;99.90;;;;;;5039189;28;20044;-87
2023/02/09 06:06:43;;;;;;;0.98;0.98;;;-0.70;99.90;;;;;;5007838;28;19967;-86
2023/02/09 06:09:09;;;;;;;0.77;0.77;;;-0.90;99.90;;;;;;5025553;28;20040;-86
2023/02/09 06:11:35;;;;;;;;;;;0.50;99.90;;;;;;5037140;28;20041;-86
2023/02/09 06:14:06;;;;;;;0.98;0.98;;;0.10;99.90;;;;;;5046369;28;20008;-87
2023/02/09 06:16:32;;;;;;;0.70;0.70;;;0.50;99.90;;;;;;5050626;28;20132;-87
2023/02/09 06:18:58;;;;;;;1.35;1.35;;;-0.80;99.90;;;;;;5040495;28;20071;-88
2023/02/09 06:21:24;;;;;;;2.30;2.20;;;-0.80;99.90;;;;;;5038732;28;20037;-89
2023/02/09 06:23:49;;;;;;;0.80;0.80;;;-0.70;99.90;;;;;;5039458;28;20041;-88
2023/02/09 06:26:16;;;;;;;0.70;0.70;;;-0.70;99.90;;;;;;5060948;28;20040;-87
2023/02/09 06:28:43;;;;;;;1.88;1.77;;;-0.70;99.90;;;;;;5036436;28;20501;-88
2023/02/09 06:31:09;;;;;;;0.63;0.63;;;-0.70;99.90;;;;;;5035312;28;20057;-89
2023/02/09 06:33:36;;;;;;;0.70;0.70;;;-0.70;99.90;;;;;;5052558;28;20393;-88
2023/02/09 06:36:03;;;;;;;0.68;0.68;;;-0.70;99.90;;;;;;5049599;28;20370;-87
2023/02/09 06:38:33;;;;;;;0.90;0.90;;;-0.70;99.90;;;;;;5026051;28;20044;-87
2023/02/09 06:40:59;;;;;;;0.80;0.80;;;-0.80;99.90;;;;;;5059136;28;20055;-87
2023/02/09 06:43:25;;;;;;;0.75;0.75;;;-0.80;99.90;;;;;;5049294;28;20124;-87
2023/02/09 06:45:51;;;;;;;0.60;0.60;;;0.40;99.90;;;;;;5053370;28;20123;-87
2023/02/09 06:48:17;;;;;;;0.82;0.82;;;-0.80;99.90;;;;;;5019343;28;20522;-88
2023/02/09 06:50:43;;;;;;;0.90;0.90;;;-0.80;99.90;;;;;;5044969;28;20097;-86
2023/02/09 06:53:08;;;;;;;0.70;0.70;;;-0.80;99.90;;;;;;5015357;28;20033;-87
2023/02/09 06:55:34;;;;;;;2.05;1.95;;;-0.80;99.90;;;;;;5017053;28;20389;-88
2023/02/09 06:58:00;;;;;;;;;;;-0.80;99.90;;;;;;5027503;28;20033;-87
2023/02/09 07:00:26;;;;;;;0.70;0.70;;;-0.70;99.90;;;;;;5038130;28;19921;-88
2023/02/09 07:02:52;;;;;;;;;;;-0.70;99.90;;;;;;5019465;28;20044;-89
2023/02/09 07:05:18;;;;;;;0.60;0.60;;;-0.70;99.90;;;;;;5031318;28;19924;-89
2023/02/09 07:07:45;;;;;;;1.00;1.00;;;0.60;99.90;;;;;;5022608;28;20061;-87
2023/02/09 07:10:13;;;;;;;0.73;0.73;;;-0.70;99.90;;;;;;5017034;28;20052;-88
2023/02/09 07:12:45;;;;;;;0.82;0.82;;;0.70;99.90;;;;;;5050106;28;20505;-89
2023/02/09 07:15:12;;;;;;;0.70;0.70;;;-0.70;99.90;;;;;;5037563;28;20094;-88
2023/02/09 07:17:38;;;;;;;0.80;0.80;;;-0.70;99.90;;;;;;5053680;28;20041;-86
2023/02/09 07:20:04;;;;;;;;;;;-0.70;99.90;;;;;;5038674;28;20112;-86
2023/02/09 07:22:30;;;;;;;0.60;0.60;;;-0.70;99.90;;;;;;5038162;28;19940;-86
2023/02/09 07:24:56;;;;;;;0.80;0.80;;;-0.70;99.90;;;;;;5053475;28;20049;-87
2023/02/09 07:27:22;;;;;;;0.70;0.70;;;-0.20;99.90;;;;;;5029128;28;20041;-87
2023/02/09 07:29:48;;;;;;;0.80;0.80;;;-0.60;99.90;;;;;;5036610;28;20123;-87
2023/02/09 07:32:21;;;;;;;0.90;0.90;;;-0.60;99.90;;;;;;5052129;28;20051;-87
2023/02/09 07:34:47;;;;;;;1.30;1.30;;;-0.60;99.90;;;;;;5015943;28;20049;-87
2023/02/09 07:37:12;;;;;;;0.80;0.80;;;-0.10;99.90;;;;;;5018514;28;20614;-89
2023/02/09 07:39:38;;;;;;;0.90;0.90;;;0.50;99.90;;;;;;5054013;28;20041;-90
2023/02/09 07:42:04;;;;;;;0.80;0.80;;;0.20;99.90;;;;;;5020249;28;20437;-88
2023/02/09 07:44:30;;;;;;;0.77;0.77;;;-0.50;99.90;;;;;;5051630;28;20049;-87
2023/02/09 07:46:55;;;;;;;0.80;0.80;;;-0.10;99.90;;;;;;5052436;28;20045;-89
2023/02/09 07:49:21;;;;;;;2.17;2.08;;;-0.10;99.90;;;;;;5021321;28;20455;-89
2023/02/09 07:51:47;;;;;;;2.58;1.25;;;0.10;99.90;;;;;;5053013;28;20049;-86
2023/02/09 07:54:13;;;;;;;0.80;0.80;;;-0.50;99.90;;;;;;5038204;28;20056;-89
2023/02/09 07:56:40;;;;;;;0.80;0.80;;;-0.40;99.90;;;;;;5036630;28;20064;-90
2023/02/09 07:59:06;;;;;;;2.65;2.58;;;-0.40;99.90;;;;;;5041718;28;20082;-88
2023/02/09 08:01:33;;;;;;;0.75;0.75;;;0.50;99.90;;;;;;5048624;28;20052;-89
2023/02/09 08:03:59;;;;;;;1.77;1.42;;;-0.30;99.90;;;;;;5031143;28;20037;-88
2023/02/09 08:06:28;;;;;;;0.60;0.60;;;-0.30;99.90;;;;;;5047725;28;20041;-88
2023/02/09 08:08:54;;;;;;;0.57;0.57;;;-0.20;99.90;;;;;;5049397;28;20041;-89
2023/02/09 08:11:28;;;;;;;3.53;1.92;;;-0.20;99.90;;;;;;5018664;28;20114;-79
2023/02/09 08:13:57;;;;;;;1.55;1.45;;;-0.10;99.90;;;;;;5042139;28;20072;-79
2023/02/09 08:16:26;;;;;;;1.35;1.25;;;-0.10;99.90;;;;;;5042308;28;20576;-86
2023/02/09 08:19:07;;;;;;;0.80;0.80;;;0.00;99.90;;;;;;5047937;28;20051;-88
2023/02/09 08:21:37;;;;;;;0.80;0.80;;;0.00;99.90;;;;;;5034344;28;20045;-87
2023/02/09 08:24:04;;;;;;;0.93;0.93;;;0.00;99.90;;;;;;5029214;28;20045;-88
2023/02/09 08:26:30;;;;;;;1.05;1.05;;;0.00;99.90;;;;;;5052625;28;20378;-88
2023/02/09 08:28:56;;;;;;;0.55;0.55;;;0.10;99.90;;;;;;5052031;28;20044;-88
2023/02/09 08:31:22;;;;;;;0.80;0.80;;;0.20;99.90;;;;;;5051521;28;20037;-88
2023/02/09 08:33:49;;;;;;;0.80;0.80;;;1.30;99.90;;;;;;5051890;28;20123;-88
2023/02/09 08:36:17;;;;;;;0.80;0.80;;;1.30;99.90;;;;;;5051444;28;20051;-89
2023/02/09 08:38:43;;;;;;;0.65;0.65;;;1.20;99.90;;;;;;5049658;28;20049;-88
2023/02/09 08:41:12;;;;;;;1.63;1.52;;;0.20;99.90;;;;;;5033328;28;20075;-87
2023/02/09 08:43:38;;;;;;;0.63;0.63;;;0.20;99.90;;;;;;5051084;28;20044;-88
2023/02/09 08:46:10;;;;;;;1.92;1.55;;;0.20;99.90;;;;;;5035905;28;20391;-88
2023/02/09 08:48:39;;;;;;;0.50;0.50;;;0.60;99.90;;;;;;5048839;28;20045;-88
2023/02/09 08:51:06;;;;;;;3.67;3.53;;;0.40;99.90;;;;;;5049799;28;20084;-89
2023/02/09 08:53:32;;;;;;;0.60;0.60;;;0.40;99.90;;;;;;5047078;28;20049;-89
2023/02/09 08:55:58;;;;;;;;;;;0.90;99.90;;;;;;5047651;28;20398;-89
2023/02/09 08:58:25;;;;;;;0.88;0.88;;;0.50;99.90;;;;;;5049285;28;19917;-90
2023/02/09 09:00:58;;;;;;;0.80;0.80;;;1.10;99.90;;;;;;5020815;28;20036;-89
2023/02/09 09:03:30;;;;;;;0.70;0.70;;;0.70;99.90;;;;;;5039189;28;20103;-88
2023/02/09 09:06:00;;;;;;;1.67;1.55;;;1.80;99.90;;;;;;5052301;28;20095;-90
2023/02/09 09:08:26;;;;;;;2.78;2.20;;;1.90;99.90;;;;;;5058601;28;20025;-89
2023/02/09 09:10:51;;;;;;;1.50;1.40;;;1.60;99.90;;;;;;5034880;28;20531;-89
2023/02/09 09:13:19;;;;;;;0.80;0.80;;;0.90;99.90;;;;;;5047964;28;20037;-88
2023/02/09 09:15:44;;;;;;;0.70;0.70;;;1.30;99.90;;;;;;5051973;28;20127;-89
2023/02/09 09:18:10;;;;;;;0.70;0.70;;;1.00;99.90;;;;;;5039586;28;20079;-87
2023/02/09 09:20:39;;;;;;;0.80;0.80;;;1.60;99.90;;;;;;5021492;28;20056;-89
2023/02/09 09:23:05;;;;;;;0.80;0.80;;;2.20;99.90;;;;;;5018408;28;20125;-88
2023/02/09 09:25:31;;;;;;;0.80;0.80;;;1.20;99.90;;;;;;5035404;28;20116;-89
2023/02/09 09:27:57;;;;;;;1.70;1.60;;;2.10;99.90;;;;;;5046172;28;20080;-89
2023/02/09 09:30:23;;;;;;;0.60;0.60;;;1.30;99.90;;;;;;5014676;28;20460;-89
2023/02/09 09:32:49;;;;;;;1.48;1.13;;;1.50;99.90;;;;;;5026118;28;20045;-89
2023/02/09 09:35:14;;;;;;;0.80;0.80;;;2.20;99.90;;;;;;5017660;28;20434;-89
2023/02/09 09:37:40;;;;;;;0.70;0.70;;;1.50;99.90;;;;;;5029663;28;20095;-88
2023/02/09 09:40:06;;;;;;;0.88;0.88;;;1.50;99.90;;;;;;5049501;28;20486;-89
2023/02/09 09:42:34;;;;;;;;;;;1.60;99.90;;;;;;5053308;28;20045;-89
2023/02/09 09:45:02;;;;;;;0.80;0.80;;;1.80;99.90;;;;;;5053223;28;20286;-89
2023/02/09 09:47:35;;;;;;;1.75;1.30;;;2.30;99.90;;;;;;5054465;28;20043;-89
2023/02/09 09:50:07;;;;;;;0.70;0.70;;;1.80;99.90;;;;;;5035913;28;20482;-88
2023/02/09 09:52:37;;;;;;;1.95;1.85;;;2.80;99.90;;;;;;5036299;28;20041;-88
2023/02/09 09:55:07;;;;;;;0.52;0.52;;;1.90;99.90;;;;;;5048694;28;20065;-89
2023/02/09 09:57:40;;;;;;;0.95;0.95;;;1.90;99.90;;;;;;5055779;28;20045;-89
2023/02/09 10:00:15;;;;;;;2.00;1.58;;;2.00;99.90;;;;;;5048626;28;20048;-88
2023/02/09 10:02:43;;;;;;;1.10;1.10;;;2.00;99.90;;;;;;5043647;28;20387;-89
2023/02/09 10:05:25;;;;;;;1.00;1.00;;;2.00;99.90;;;;;;5020440;28;20057;-88
2023/02/09 10:08:10;;;;;;;0.80;0.80;;;2.00;99.90;;;;;;5056330;28;20048;-88
2023/02/09 10:10:50;;;;;;;0.70;0.70;;;2.20;99.90;;;;;;5048400;28;20041;-89
2023/02/09 10:13:23;;;;;;;0.85;0.85;;;2.10;99.90;;;;;;5052112;28;20041;-88
2023/02/09 10:15:53;;;;;;;0.95;0.95;;;2.10;99.90;;;;;;5053890;28;20041;-88
2023/02/09 10:18:24;;;;;;;2.28;2.15;;;2.20;99.90;;;;;;5053080;28;20045;-88
2023/02/09 10:20:53;;;;;;;0.85;0.85;;;2.60;99.90;;;;;;5041597;28;20112;-88
2023/02/09 10:23:24;;;;;;;5.22;4.00;;;2.40;99.90;;;;;;5056503;28;20033;-86
2023/02/09 10:26:08;;;;;;;0.85;0.85;;;2.30;99.90;;;;;;5052574;28;20056;-86
2023/02/09 10:28:39;;;;;;;4.43;2.55;;;2.40;99.90;;;;;;5046280;28;20044;-86
2023/02/09 10:31:19;;;;;;;0.75;0.75;;;2.40;99.90;;;;;;5027140;28;20037;-85
2023/02/09 10:33:49;;;;;;;0.77;0.77;;;2.50;99.90;;;;;;5013592;28;20045;-87
2023/02/09 10:36:30;;;;;;;3.97;1.88;;;2.50;99.90;;;;;;5028924;28;20514;-87
2023/02/09 10:39:27;;;;;;;0.80;0.80;;;2.60;99.90;;;;;;5034864;28;20045;-86
2023/02/09 10:41:55;;;;;;;0.80;0.80;;;2.70;99.90;;;;;;5016611;28;20049;-86
2023/02/09 10:44:26;;;;;;;0.93;0.93;;;2.80;99.90;;;;;;5026438;28;20045;-85
2023/02/09 10:47:26;;;;;;;1.33;1.25;;;2.90;99.90;;;;;;5032153;28;20084;-86
2023/02/09 10:49:59;;;;;;;0.70;0.70;;;3.60;99.90;;;;;;5015296;28;20140;-87
2023/02/09 10:52:29;;;;;;;0.70;0.70;;;3.10;99.90;;;;;;5032231;28;20037;-88
2023/02/09 10:54:59;;;;;;;1.92;1.58;;;3.10;99.90;;;;;;5033752;28;20064;-85
2023/02/09 10:57:35;;;;;;;0.90;0.90;;;3.20;99.90;;;;;;5018625;28;20057;-88
2023/02/09 11:00:25;;;;;;;0.70;0.70;;;3.30;99.90;;;;;;5037065;28;20110;-85
2023/02/09 11:02:54;;;;;;;0.75;0.75;;;3.30;99.90;;;;;;5038052;28;20041;-86
2023/02/09 11:05:19;;;;;;;0.70;0.70;;;3.30;99.90;;;;;;5040533;28;20056;-87
2023/02/09 11:08:07;;;;;;;1.50;1.10;;;3.30;99.90;;;;;;5039107;28;20060;-85
2023/02/09 11:10:40;;;;;;;3.92;2.15;;;3.30;99.90;;;;;;5041309;28;20037;-86
2023/02/09 11:13:25;;;;;;;0.98;0.98;;;3.50;99.90;;;;;;5041188;28;20127;-87
2023/02/09 11:16:19;;;;;;;0.93;0.93;;;3.30;99.90;;;;;;5035277;28;20107;-85
2023/02/09 11:18:56;;;;;;;0.60;0.60;;;3.30;99.90;;;;;;5047225;28;20052;-86
2023/02/09 11:21:35;;;;;;;0.82;0.82;;;3.30;99.90;;;;;;5047961;28;20048;-87
2023/02/09 11:24:22;;;;;;;2.00;1.90;;;3.30;99.90;;;;;;5041906;28;20425;-86
2023/02/09 11:27:04;;;;;;;0.82;0.82;;;3.30;99.90;;;;;;5031782;28;20063;-86
2023/02/09 11:29:57;;;;;;;1.55;1.50;;;3.40;99.90;;;;;;5033290;28;20053;-87
2023/02/09 11:32:42;;;;;;;0.60;0.60;;;3.40;99.90;;;;;;5034607;28;20108;-87
2023/02/09 11:35:09;;;;;;;0.80;0.80;;;3.50;99.90;;;;;;5021431;28;20060;-88
2023/02/09 11:37:44;;;;;;;0.70;0.70;;;3.50;99.90;;;;;;5054849;28;20140;-89
2023/02/09 11:40:34;;;;;;;0.80;0.80;;;3.60;99.90;;;;;;5011918;28;20482;-88
2023/02/09 11:43:23;;;;;;;0.93;0.93;;;3.70;99.90;;;;;;5026799;28;20128;-88
2023/02/09 11:45:51;;;;;;;2.05;1.95;;;3.90;99.90;;;;;;5017400;28;20214;-88
2023/02/09 11:48:33;;;;;;;1.23;1.23;;;3.90;99.90;;;;;;5014181;28;20048;-87
2023/02/09 11:51:05;;;;;;;0.75;0.75;;;4.10;99.90;;;;;;5029864;28;20048;-88
2023/02/09 11:54:04;;;;;;;1.52;1.48;;;4.20;99.90;;;;;;5030206;28;20131;-85
2023/02/09 11:56:36;;;;;;;0.82;0.82;;;4.20;99.90;;;;;;5019032;28;20514;-87
2023/02/09 11:59:23;;;;;;;1.15;1.05;;;4.20;99.90;;;;;;5018130;28;20056;-86
2023/02/09 12:02:05;;;;;;;2.63;1.15;;;4.20;99.90;;;;;;5016744;28;20097;-86
2023/02/09 12:05:07;;;;;;;1.45;1.35;;;4.20;99.90;;;;;;5021196;28;20134;-87
2023/02/09 12:07:47;;;;;;;0.95;0.95;;;4.20;99.90;;;;;;5038739;28;20439;-86
2023/02/09 12:10:38;;;;;;;1.10;1.00;;;4.20;99.90;;;;;;5013373;28;20052;-87
2023/02/09 12:13:12;;;;;;;5.47;1.17;;;4.30;99.90;;;;;;5028789;28;20132;-88
2023/02/09 12:15:45;;;;;;;0.70;0.70;;;4.40;99.90;;;;;;5030985;28;20092;-87
2023/02/09 12:18:17;;;;;;;1.13;1.13;;;4.50;99.90;;;;;;5023508;28;20053;-86
2023/02/09 12:20:55;;;;;;;0.70;0.70;;;4.60;99.90;;;;;;5022083;28;20045;-87
2023/02/09 12:23:43;;;;;;;1.60;1.40;;;4.70;99.90;;;;;;5022857;28;20053;-87
2023/02/09 12:26:12;;;;;;;1.55;1.25;;;4.80;99.90;;;;;;5022869;28;20497;-86
2023/02/09 12:29:05;;;;;;;0.80;0.77;;;4.90;99.90;;;;;;5023939;28;20060;-85
2023/02/09 12:32:03;;;;;;;3.15;2.95;;;4.80;99.90;;;;;;4989087;28;20053;-88
2023/02/09 12:34:28;;;;;;;;;;;4.90;99.90;;;;;;5018143;28;20049;-87
2023/02/09 12:37:13;;;;;;;0.88;0.88;;;4.80;99.90;;;;;;5002596;28;19925;-86
2023/02/09 12:40:10;;;;;;;0.80;0.80;;;5.00;99.90;;;;;;5014409;28;20133;-87
2023/02/09 12:42:42;;;;;;;2.35;2.15;;;4.60;99.90;;;;;;5017454;28;20048;-86
2023/02/09 12:45:35;;;;;;;1.55;1.45;;;4.50;99.90;;;;;;5020481;28;20075;-87
2023/02/09 12:48:13;;;;;;;0.70;0.70;;;4.40;99.90;;;;;;5027758;28;20463;-86
2023/02/09 12:50:42;;;;;;;0.75;0.75;;;4.40;99.90;;;;;;5031725;28;20048;-85
2023/02/09 12:53:23;;;;;;;2.25;2.15;;;4.40;99.90;;;;;;5009037;28;20041;-87
2023/02/09 12:56:10;;;;;;;0.80;0.80;;;4.30;99.90;;;;;;5019811;28;20399;-86
2023/02/09 12:58:48;;;;;;;0.55;0.55;;;4.30;99.90;;;;;;5019876;28;20444;-87
2023/02/09 13:01:15;;;;;;;0.70;0.70;;;4.30;99.90;;;;;;5027139;28;20040;-87
2023/02/09 13:04:05;;;;;;;0.68;0.68;;;4.30;99.90;;;;;;5019602;28;20124;-85
2023/02/09 13:06:46;;;;;;;1.80;1.30;;;4.30;99.90;;;;;;5005359;28;20123;-86
2023/02/09 13:09:33;;;;;;;0.93;0.93;;;4.30;99.90;;;;;;5008682;28;20375;-87
2023/02/09 13:11:59;;;;;;;1.30;1.20;;;4.30;99.90;;;;;;5022107;28;20386;-86
2023/02/09 13:14:25;;;;;;;1.17;1.02;;;4.30;99.90;;;;;;5022534;28;20057;-87
2023/02/09 13:17:37;;;;;;;3.53;2.35;;;4.30;99.90;;;;;;5021774;28;20128;-88
2023/02/09 13:20:49;;;;;;;3.95;2.97;;;4.30;99.90;;;;;;5025462;28;20123;-87
2023/02/09 13:23:39;;;;;;;2.40;2.20;;;4.40;99.90;;;;;;4997064;28;20048;-88